Time;durP1;ratioP1;P1;durP2;ratioP2;P2;SDS_P1;SDS_P2;PMS_P1;PMS_P2;Temp;Humidity;BMP_temperature;BMP_pressure;BME280_temperature;BME280_humidity;BME280_pressure;Samples;Min_cycle;Max_cycle;Signal;HPM_P1;HPM_P2
2023/06/05 00:01:17;;;;;;;1.50;1.40;;;21.40;44.70;;;;;;4974680;28;20473;-82
2023/06/05 00:03:44;;;;;;;3.30;1.90;;;21.50;44.20;;;;;;4973504;28;20535;-81
2023/06/05 00:06:11;;;;;;;2.33;1.80;;;21.40;44.00;;;;;;4970215;28;23534;-82
2023/06/05 00:08:42;;;;;;;1.50;1.30;;;21.40;44.00;;;;;;4969453;28;20499;-83
2023/06/05 00:11:12;;;;;;;1.67;1.37;;;21.10;44.20;;;;;;4968305;28;20583;-83
2023/06/05 00:13:39;;;;;;;3.20;1.60;;;21.00;44.40;;;;;;4970737;28;20770;-83
2023/06/05 00:16:06;;;;;;;2.50;1.57;;;20.90;44.70;;;;;;4967207;28;21467;-82
2023/06/05 00:18:33;;;;;;;1.23;1.13;;;21.00;44.40;;;;;;4966238;28;21141;-82
2023/06/05 00:21:00;;;;;;;2.60;2.00;;;20.90;45.20;;;;;;4969260;28;20546;-82
2023/06/05 00:23:34;;;;;;;1.50;1.20;;;20.80;44.70;;;;;;4983072;28;20467;-84
2023/06/05 00:26:01;;;;;;;2.13;1.40;;;20.80;45.00;;;;;;4968474;28;20586;-83
2023/06/05 00:28:28;;;;;;;1.47;1.37;;;20.70;45.10;;;;;;4971354;28;20518;-84
2023/06/05 00:30:54;;;;;;;2.83;2.63;;;20.60;45.30;;;;;;4972278;28;20532;-82
2023/06/05 00:33:29;;;;;;;4.40;1.40;;;20.60;45.40;;;;;;4973222;28;20476;-84
2023/06/05 00:35:57;;;;;;;1.63;1.47;;;20.60;45.50;;;;;;4972053;28;20460;-83
2023/06/05 00:38:23;;;;;;;2.00;1.30;;;20.70;45.80;;;;;;4971525;28;20479;-84
2023/06/05 00:40:53;;;;;;;1.43;1.33;;;20.60;45.50;;;;;;4970101;28;20491;-80
2023/06/05 00:43:20;;;;;;;1.60;1.40;;;20.80;45.10;;;;;;4972872;28;20569;-83
2023/06/05 00:45:56;;;;;;;2.70;1.33;;;20.70;45.20;;;;;;4972837;28;20582;-83
2023/06/05 00:48:23;;;;;;;2.40;1.83;;;20.60;45.80;;;;;;4971480;28;20676;-82
2023/06/05 00:50:50;;;;;;;1.33;1.23;;;20.50;46.40;;;;;;4991131;28;20529;-82
2023/06/05 00:53:17;;;;;;;1.77;1.50;;;20.60;46.90;;;;;;4976576;28;20520;-83
2023/06/05 00:55:45;;;;;;;2.17;1.40;;;20.50;46.90;;;;;;4976154;28;20472;-81
2023/06/05 00:58:15;;;;;;;1.50;1.10;;;20.40;47.10;;;;;;4997575;28;20472;-81
2023/06/05 01:00:42;;;;;;;1.40;1.30;;;20.40;47.20;;;;;;4980119;28;20451;-80
2023/06/05 01:03:09;;;;;;;1.47;1.33;;;20.40;47.30;;;;;;4982291;28;20509;-82
2023/06/05 01:05:39;;;;;;;1.20;1.10;;;20.30;47.40;;;;;;4980876;28;21381;-80
2023/06/05 01:08:09;;;;;;;1.77;1.30;;;20.30;47.60;;;;;;4972835;28;20494;-82
2023/06/05 01:10:35;;;;;;;1.47;1.37;;;20.30;48.10;;;;;;4972589;28;20546;-82
2023/06/05 01:13:15;;;;;;;1.87;1.47;;;20.20;48.20;;;;;;4983168;28;20486;-82
2023/06/05 01:15:42;;;;;;;1.97;1.43;;;20.20;47.90;;;;;;4976965;28;20519;-83
2023/06/05 01:18:13;;;;;;;1.90;1.80;;;20.10;47.70;;;;;;4969630;28;20467;-83
2023/06/05 01:20:41;;;;;;;1.50;1.40;;;20.10;47.40;;;;;;4975846;28;20467;-82
2023/06/05 01:23:14;;;;;;;1.97;1.17;;;20.30;47.00;;;;;;4972316;28;20447;-83
2023/06/05 01:25:46;;;;;;;1.63;1.53;;;20.10;46.80;;;;;;4971440;28;20477;-82
2023/06/05 01:28:20;;;;;;;1.50;1.40;;;20.10;47.20;;;;;;4974206;28;21776;-82
2023/06/05 01:31:03;;;;;;;1.50;1.40;;;20.00;47.30;;;;;;4971923;28;20432;-82
2023/06/05 01:33:44;;;;;;;1.60;1.37;;;20.10;47.50;;;;;;4973246;28;20455;-83
2023/06/05 01:36:19;;;;;;;2.40;1.60;;;20.20;47.40;;;;;;4970533;28;20455;-82
2023/06/05 01:38:49;;;;;;;1.47;1.30;;;20.10;47.10;;;;;;4970587;28;20618;-82
2023/06/05 01:41:20;;;;;;;1.57;1.47;;;20.00;47.50;;;;;;4988580;28;21360;-82
2023/06/05 01:43:49;;;;;;;1.50;1.33;;;19.90;47.80;;;;;;4974443;28;20479;-82
2023/06/05 01:46:21;;;;;;;1.63;1.53;;;20.00;47.90;;;;;;4977353;28;20885;-82
2023/06/05 01:48:54;;;;;;;1.40;1.30;;;19.90;47.30;;;;;;4975415;28;20503;-83
2023/06/05 01:51:23;;;;;;;2.80;1.50;;;20.00;47.60;;;;;;4979250;28;20454;-83
2023/06/05 01:53:52;;;;;;;1.70;1.60;;;19.90;47.60;;;;;;4956434;28;20454;-80
2023/06/05 01:56:19;;;;;;;1.80;1.70;;;19.70;47.40;;;;;;4964411;28;20459;-83
2023/06/05 01:58:49;;;;;;;1.60;1.50;;;19.70;47.30;;;;;;4984111;28;20529;-83
2023/06/05 02:01:22;;;;;;;2.00;1.27;;;19.50;47.00;;;;;;4987419;28;20466;-83
2023/06/05 02:03:57;;;;;;;1.23;1.10;;;19.50;47.00;;;;;;4985743;28;20466;-83
2023/06/05 02:06:24;;;;;;;1.70;1.40;;;19.50;46.80;;;;;;4985189;28;20455;-81
2023/06/05 02:08:57;;;;;;;1.33;1.23;;;19.50;46.80;;;;;;4985893;28;20494;-82
2023/06/05 02:11:29;;;;;;;2.53;2.33;;;19.50;47.00;;;;;;4986982;28;21138;-81
2023/06/05 02:13:59;;;;;;;1.70;1.53;;;19.70;47.10;;;;;;4990926;28;20435;-82
2023/06/05 02:16:28;;;;;;;2.00;1.73;;;19.60;46.90;;;;;;4994411;28;20563;-83
2023/06/05 02:19:03;;;;;;;1.63;1.53;;;19.70;46.70;;;;;;4991391;28;20490;-81
2023/06/05 02:21:32;;;;;;;1.67;1.57;;;19.60;46.50;;;;;;4986962;28;20558;-82
2023/06/05 02:24:02;;;;;;;1.60;1.40;;;19.60;46.50;;;;;;4974336;28;20455;-83
2023/06/05 02:26:30;;;;;;;1.50;1.40;;;19.60;46.50;;;;;;4965955;28;20495;-83
2023/06/05 02:28:59;;;;;;;3.27;1.50;;;19.50;46.50;;;;;;4969314;28;20526;-82
2023/06/05 02:31:28;;;;;;;4.40;1.30;;;19.50;46.90;;;;;;4966198;28;21026;-81
2023/06/05 02:33:59;;;;;;;1.40;1.10;;;19.40;47.10;;;;;;5005180;28;20492;-81
2023/06/05 02:36:26;;;;;;;1.73;1.63;;;19.30;47.10;;;;;;4972857;28;20526;-80
2023/06/05 02:38:53;;;;;;;1.70;1.50;;;19.50;46.90;;;;;;4969235;28;20534;-81
2023/06/05 02:41:23;;;;;;;1.50;1.40;;;19.40;47.60;;;;;;4976591;28;20490;-82
2023/06/05 02:43:56;;;;;;;2.93;1.80;;;19.30;47.60;;;;;;4967373;28;21338;-82
2023/06/05 02:46:30;;;;;;;2.93;1.60;;;19.30;47.90;;;;;;4967068;28;20482;-82
2023/06/05 02:49:02;;;;;;;2.10;1.80;;;19.10;48.20;;;;;;4965026;28;20488;-82
2023/06/05 02:51:29;;;;;;;2.03;1.83;;;19.00;48.70;;;;;;4966717;28;21144;-84
2023/06/05 02:53:58;;;;;;;1.87;1.40;;;19.00;49.50;;;;;;4965643;28;20467;-82
2023/06/05 02:56:26;;;;;;;1.67;1.30;;;18.90;49.00;;;;;;4964442;28;20563;-82
2023/06/05 02:59:02;;;;;;;2.00;1.57;;;18.90;49.00;;;;;;4978383;28;20505;-82
2023/06/05 03:01:34;;;;;;;1.87;1.60;;;18.90;49.10;;;;;;4968000;28;20952;-82
2023/06/05 03:04:02;;;;;;;1.73;1.53;;;19.00;49.00;;;;;;4971109;28;20468;-83
2023/06/05 03:06:33;;;;;;;2.23;1.80;;;18.80;49.10;;;;;;4971783;28;20490;-82
2023/06/05 03:09:00;;;;;;;2.20;1.80;;;18.80;49.40;;;;;;4972780;28;20518;-80
2023/06/05 03:11:29;;;;;;;1.90;1.80;;;18.70;49.50;;;;;;4970301;28;20459;-83
2023/06/05 03:13:59;;;;;;;1.87;1.70;;;18.70;49.70;;;;;;4967475;28;20522;-82
2023/06/05 03:16:33;;;;;;;2.07;1.70;;;18.70;49.80;;;;;;4968889;28;20487;-82
2023/06/05 03:19:00;;;;;;;1.70;1.50;;;18.70;49.90;;;;;;4970450;28;20494;-83
2023/06/05 03:21:26;;;;;;;1.43;1.30;;;18.60;49.90;;;;;;4969919;28;20617;-83
2023/06/05 03:23:53;;;;;;;2.40;1.97;;;18.60;50.20;;;;;;4972922;28;21401;-84
2023/06/05 03:26:22;;;;;;;2.00;1.43;;;18.60;50.50;;;;;;4976081;28;20835;-80
2023/06/05 03:28:49;;;;;;;2.10;1.90;;;18.70;50.80;;;;;;4981767;28;20506;-81
2023/06/05 03:31:17;;;;;;;4.10;1.50;;;18.80;50.90;;;;;;4971682;28;20459;-82
2023/06/05 03:33:46;;;;;;;2.73;1.40;;;18.60;51.10;;;;;;4975100;28;20519;-81
2023/06/05 03:36:17;;;;;;;4.17;1.70;;;18.50;51.50;;;;;;4980575;28;20455;-82
2023/06/05 03:38:44;;;;;;;2.50;1.90;;;18.60;51.80;;;;;;4987492;28;20475;-84
2023/06/05 03:41:11;;;;;;;1.73;1.60;;;18.50;51.90;;;;;;4973764;28;20495;-82
2023/06/05 03:43:38;;;;;;;2.27;1.70;;;18.50;52.20;;;;;;4973952;28;20459;-83
2023/06/05 03:46:05;;;;;;;1.67;1.23;;;18.60;52.40;;;;;;4976317;28;20455;-82
2023/06/05 03:48:35;;;;;;;1.63;1.53;;;18.60;52.40;;;;;;4972533;28;20571;-80
2023/06/05 03:51:02;;;;;;;3.10;1.80;;;18.70;52.60;;;;;;4975560;28;20440;-83
2023/06/05 03:53:30;;;;;;;3.80;2.00;;;18.70;52.50;;;;;;4990141;28;20452;-81
2023/06/05 03:55:58;;;;;;;3.27;2.00;;;18.70;52.70;;;;;;4974960;28;20535;-82
2023/06/05 03:58:28;;;;;;;1.73;1.60;;;18.60;53.20;;;;;;4973245;28;20483;-81
2023/06/05 04:00:55;;;;;;;1.70;1.60;;;18.50;53.10;;;;;;4979764;28;20466;-83
2023/06/05 04:06:33;;;;;;;2.00;1.73;;;18.40;53.50;;;;;;4976269;28;20462;-83
2023/06/05 04:08:59;;;;;;;2.93;2.20;;;18.40;53.80;;;;;;4977619;28;20586;-83
2023/06/05 04:11:30;;;;;;;1.73;1.50;;;18.30;54.00;;;;;;4975408;28;20452;-84
2023/06/05 04:13:56;;;;;;;3.47;1.80;;;18.40;54.30;;;;;;4974839;28;20487;-82
2023/06/05 04:16:26;;;;;;;2.27;1.87;;;18.40;54.20;;;;;;4975798;28;20515;-83
2023/06/05 04:18:53;;;;;;;1.97;1.77;;;18.40;54.40;;;;;;4980033;28;20487;-82
2023/06/05 04:21:20;;;;;;;3.50;2.17;;;18.30;54.40;;;;;;4983256;28;20469;-83
2023/06/05 04:23:46;;;;;;;2.73;1.80;;;18.40;54.50;;;;;;4985790;28;20451;-82
2023/06/05 04:26:17;;;;;;;2.67;1.60;;;18.40;54.50;;;;;;4983268;28;20463;-82
2023/06/05 04:28:51;;;;;;;3.77;2.23;;;18.40;54.70;;;;;;4982583;28;20486;-84
2023/06/05 04:31:43;;;;;;;2.00;1.80;;;18.60;55.20;;;;;;4990320;28;20450;-83
2023/06/05 04:34:14;;;;;;;3.27;1.83;;;18.60;55.20;;;;;;4992997;28;21058;-84
2023/06/05 04:36:41;;;;;;;3.40;2.17;;;18.60;55.40;;;;;;4996563;28;20462;-84
2023/06/05 04:39:14;;;;;;;2.20;2.00;;;18.80;55.80;;;;;;4998246;28;20460;-81
2023/06/05 04:41:53;;;;;;;3.73;2.33;;;18.60;55.60;;;;;;4997828;28;20523;-82
2023/06/05 04:44:32;;;;;;;1.80;1.70;;;18.60;55.80;;;;;;4991843;28;20455;-81
2023/06/05 04:47:04;;;;;;;2.30;2.00;;;18.50;56.10;;;;;;4985389;28;20527;-82
2023/06/05 04:49:54;;;;;;;2.00;1.80;;;18.90;55.90;;;;;;4970175;28;21332;-80
2023/06/05 04:52:39;;;;;;;4.50;2.30;;;18.70;56.00;;;;;;4974262;28;20518;-81
2023/06/05 04:55:08;;;;;;;3.47;1.63;;;18.70;56.50;;;;;;4968992;28;20444;-81
2023/06/05 04:58:13;;;;;;;5.67;2.50;;;18.60;56.60;;;;;;4965379;28;21028;-84
2023/06/05 05:00:40;;;;;;;3.07;2.17;;;18.80;56.90;;;;;;4975707;28;20470;-83
2023/06/05 05:03:08;;;;;;;2.17;1.97;;;18.70;57.30;;;;;;4966244;28;20522;-81
2023/06/05 05:05:36;;;;;;;3.50;1.90;;;18.50;57.50;;;;;;4961560;28;20475;-82
2023/06/05 05:08:04;;;;;;;7.57;2.23;;;18.50;58.00;;;;;;4962660;28;20482;-83
2023/06/05 05:10:41;;;;;;;3.00;2.40;;;18.50;58.30;;;;;;4964930;28;20602;-82
2023/06/05 05:13:09;;;;;;;2.30;2.10;;;18.40;58.60;;;;;;4961684;28;20460;-84
2023/06/05 05:15:36;;;;;;;3.80;2.20;;;18.90;58.30;;;;;;4967612;28;20455;-83
2023/06/05 05:18:03;;;;;;;2.03;1.77;;;18.80;57.80;;;;;;4969084;28;20459;-84
2023/06/05 05:20:34;;;;;;;4.03;2.13;;;18.90;57.60;;;;;;4953518;28;20462;-83
2023/06/05 05:23:01;;;;;;;2.60;2.00;;;18.80;57.50;;;;;;4974328;28;20815;-84
2023/06/05 05:25:31;;;;;;;2.30;1.97;;;18.90;57.70;;;;;;4970922;28;20459;-82
2023/06/05 05:28:00;;;;;;;2.27;2.07;;;18.80;57.00;;;;;;4980207;28;20511;-81
2023/06/05 05:30:32;;;;;;;3.50;2.40;;;18.90;57.20;;;;;;4974082;28;20493;-83
2023/06/05 05:33:14;;;;;;;3.33;1.97;;;18.80;56.90;;;;;;4986878;28;20460;-82
2023/06/05 05:35:49;;;;;;;4.63;2.40;;;18.70;56.70;;;;;;4972008;28;21120;-83
2023/06/05 05:38:19;;;;;;;2.10;1.90;;;18.70;56.90;;;;;;4972151;28;20479;-81
2023/06/05 05:40:49;;;;;;;4.63;2.60;;;18.90;57.20;;;;;;4972480;28;21219;-82
2023/06/05 05:43:19;;;;;;;2.53;2.17;;;18.90;57.00;;;;;;4971430;28;20525;-82
2023/06/05 05:45:46;;;;;;;3.53;2.10;;;18.90;57.20;;;;;;4971639;28;20563;-82
2023/06/05 05:48:13;;;;;;;3.53;2.43;;;19.10;57.20;;;;;;4968200;28;20502;-82
2023/06/05 05:50:43;;;;;;;3.40;2.43;;;19.20;56.90;;;;;;4974400;28;20502;-82
2023/06/05 05:53:09;;;;;;;2.10;1.53;;;19.10;56.60;;;;;;4979958;28;20455;-83
2023/06/05 05:55:36;;;;;;;5.83;2.43;;;19.00;56.30;;;;;;4976840;28;20474;-82
2023/06/05 05:58:03;;;;;;;3.87;1.80;;;18.90;56.10;;;;;;4980541;28;20480;-82
2023/06/05 06:00:34;;;;;;;2.00;1.80;;;19.00;56.70;;;;;;4979559;28;20454;-83
2023/06/05 06:03:01;;;;;;;3.00;2.10;;;19.20;56.20;;;;;;4977908;28;20455;-82
2023/06/05 06:05:29;;;;;;;2.90;2.20;;;19.20;55.50;;;;;;4978310;28;20542;-83
2023/06/05 06:07:56;;;;;;;3.07;2.23;;;19.30;55.40;;;;;;4975957;28;20869;-83
2023/06/05 06:10:26;;;;;;;2.30;2.10;;;19.20;55.00;;;;;;4995544;28;20550;-81
2023/06/05 06:12:56;;;;;;;2.27;1.87;;;19.30;55.50;;;;;;4979328;28;20447;-83
2023/06/05 06:15:23;;;;;;;4.47;1.90;;;19.40;55.50;;;;;;4929159;28;20559;-83
2023/06/05 06:17:50;;;;;;;4.67;2.20;;;19.40;55.80;;;;;;4974394;28;20495;-83
2023/06/05 06:20:20;;;;;;;3.30;2.50;;;19.40;56.10;;;;;;4972744;28;20452;-82
2023/06/05 06:22:50;;;;;;;9.60;3.20;;;19.30;56.40;;;;;;4979247;28;20597;-83
2023/06/05 06:25:20;;;;;;;2.90;2.03;;;19.40;56.70;;;;;;4970300;28;20471;-82
2023/06/05 06:27:49;;;;;;;2.50;2.00;;;19.60;56.00;;;;;;4970320;28;20483;-82
2023/06/05 06:30:18;;;;;;;2.80;2.30;;;19.50;55.50;;;;;;4970033;28;20477;-82
2023/06/05 06:32:45;;;;;;;3.30;2.03;;;19.70;55.50;;;;;;4975599;28;20470;-83
2023/06/05 06:35:29;;;;;;;3.13;1.80;;;19.70;54.20;;;;;;4972325;28;20448;-83
2023/06/05 06:38:12;;;;;;;2.60;2.23;;;19.80;54.50;;;;;;4978457;28;20464;-83
2023/06/05 06:40:52;;;;;;;2.50;2.30;;;19.50;53.80;;;;;;4977104;28;20565;-83
2023/06/05 06:43:22;;;;;;;4.83;2.00;;;19.50;54.90;;;;;;4972040;28;20535;-83
2023/06/05 06:46:00;;;;;;;2.23;2.00;;;19.70;55.40;;;;;;4973258;28;20459;-82
2023/06/05 06:48:35;;;;;;;4.17;2.10;;;19.90;55.10;;;;;;4974793;28;20467;-82
2023/06/05 06:51:06;;;;;;;1.97;1.87;;;20.00;55.10;;;;;;4971580;28;20831;-82
2023/06/05 06:56:38;;;;;;;3.00;2.20;;;20.20;52.20;;;;;;4974184;28;20554;-83
2023/06/05 06:59:15;;;;;;;3.80;2.27;;;20.10;53.00;;;;;;4977660;28;20482;-83
2023/06/05 07:01:48;;;;;;;2.60;2.10;;;20.10;52.80;;;;;;4993799;28;20570;-82
2023/06/05 07:04:24;;;;;;;2.93;2.10;;;20.20;52.80;;;;;;4979298;28;20522;-81
2023/06/05 07:06:56;;;;;;;3.37;2.00;;;20.10;52.80;;;;;;4978499;28;20472;-83
2023/06/05 07:09:29;;;;;;;2.63;2.13;;;20.70;52.00;;;;;;4977735;28;20519;-81
2023/06/05 07:12:04;;;;;;;1.83;1.73;;;20.70;52.10;;;;;;4981724;28;21043;-83
2023/06/05 07:14:43;;;;;;;1.70;1.60;;;20.70;51.50;;;;;;4978713;28;20576;-84
2023/06/05 07:17:21;;;;;;;1.80;1.70;;;20.50;51.70;;;;;;4997418;28;20463;-84
2023/06/05 07:19:57;;;;;;;3.03;1.70;;;20.50;52.10;;;;;;4986922;28;20812;-83
2023/06/05 07:22:44;;;;;;;1.93;1.50;;;21.00;50.80;;;;;;4980076;28;20468;-83
2023/06/05 07:25:24;;;;;;;2.20;1.60;;;21.20;50.50;;;;;;4986898;28;20621;-79
2023/06/05 07:28:01;;;;;;;3.60;1.87;;;21.40;50.30;;;;;;4980792;28;20487;-82
2023/06/05 07:30:31;;;;;;;2.80;1.70;;;21.30;49.20;;;;;;4980021;28;20788;-81
2023/06/05 07:33:09;;;;;;;1.73;1.43;;;21.50;49.30;;;;;;4977528;28;21444;-82
2023/06/05 07:36:00;;;;;;;2.13;2.00;;;21.40;48.40;;;;;;4983674;28;20447;-80
2023/06/05 07:38:40;;;;;;;2.47;1.87;;;21.40;48.70;;;;;;5000364;28;20454;-82
2023/06/05 07:41:23;;;;;;;4.10;1.80;;;21.40;48.90;;;;;;5002830;28;20450;-81
2023/06/05 07:43:52;;;;;;;1.70;1.50;;;21.30;49.40;;;;;;5004839;28;20455;-82
2023/06/05 07:46:25;;;;;;;1.80;1.70;;;21.40;49.60;;;;;;5005897;28;20448;-82
2023/06/05 07:48:57;;;;;;;3.10;2.20;;;21.40;49.80;;;;;;5036659;28;20470;-82
2023/06/05 07:51:40;;;;;;;3.07;2.17;;;21.60;50.00;;;;;;5221387;22;20483;-81
2023/06/05 07:54:12;;;;;;;2.27;2.10;;;21.50;49.70;;;;;;4977923;28;20452;-82
2023/06/05 07:56:51;;;;;;;2.43;2.10;;;21.40;51.00;;;;;;4987107;28;20535;-82
2023/06/05 07:59:28;;;;;;;5.97;2.30;;;21.60;52.20;;;;;;4988584;28;20468;-83
2023/06/05 08:01:59;;;;;;;3.13;2.33;;;21.50;52.60;;;;;;4972325;28;21456;-83
2023/06/05 08:04:28;;;;;;;10.00;2.83;;;21.60;53.00;;;;;;4963798;28;20464;-82
2023/06/05 08:07:13;;;;;;;5.37;2.60;;;21.70;52.90;;;;;;4966616;28;20467;-83
2023/06/05 08:09:55;;;;;;;4.30;2.20;;;21.60;53.00;;;;;;4966271;28;20492;-82
2023/06/05 08:12:53;;;;;;;;;;;;;;;;;;;;;
2023/06/05 08:15:39;;;;;;;3.57;2.40;;;21.70;53.10;;;;;;4983658;28;20475;-83
2023/06/05 08:18:11;;;;;;;2.80;2.50;;;21.90;53.30;;;;;;4987964;28;20472;-83
2023/06/05 08:20:43;;;;;;;2.70;2.10;;;22.50;51.80;;;;;;4988256;28;20472;-84
2023/06/05 08:23:59;;;;;;;3.00;2.13;;;22.60;51.50;;;;;;4991391;28;20460;-82
2023/06/05 08:26:45;;;;;;;2.60;2.33;;;22.70;50.20;;;;;;4986496;28;20464;-83
2023/06/05 08:29:39;;;;;;;2.60;2.27;;;23.00;49.20;;;;;;4983794;28;20458;-85
2023/06/05 08:32:24;;;;;;;3.10;2.83;;;23.60;50.40;;;;;;4982997;28;21255;-86
2023/06/05 08:35:07;;;;;;;2.47;2.27;;;23.80;50.00;;;;;;4982293;28;20460;-85
2023/06/05 08:37:43;;;;;;;5.10;2.60;;;23.70;49.60;;;;;;4974221;28;20471;-86
2023/06/05 08:40:36;;;;;;;2.83;2.00;;;23.60;49.20;;;;;;4973795;28;20847;-83
2023/06/05 08:43:06;;;;;;;5.23;2.63;;;23.60;48.80;;;;;;4970898;28;20503;-84
2023/06/05 08:45:48;;;;;;;2.57;2.37;;;23.90;49.00;;;;;;4971679;28;20484;-83
2023/06/05 08:48:19;;;;;;;3.03;2.10;;;25.10;47.60;;;;;;4972645;28;20491;-84
2023/06/05 08:51:03;;;;;;;2.27;1.83;;;24.80;46.50;;;;;;4988056;28;20497;-85
2023/06/05 08:53:41;;;;;;;3.73;2.40;;;25.10;46.80;;;;;;4975347;28;20475;-82
2023/06/05 08:56:15;;;;;;;2.70;2.13;;;25.00;46.60;;;;;;4975123;28;20964;-85
2023/06/05 08:58:46;;;;;;;2.77;2.57;;;25.20;46.60;;;;;;4972616;28;20511;-85
2023/06/05 09:01:30;;;;;;;2.60;2.40;;;25.50;46.30;;;;;;4976214;28;20448;-83
2023/06/05 09:04:52;;;;;;;3.20;2.90;;;25.60;45.50;;;;;;4977295;28;20439;-85
2023/06/05 09:07:45;;;;;;;1.80;1.70;;;26.00;45.30;;;;;;4975129;28;20455;-84
2023/06/05 09:10:28;;;;;;;2.77;2.10;;;26.60;44.10;;;;;;4976184;28;20496;-85
2023/06/05 09:13:01;;;;;;;1.67;1.57;;;27.60;42.10;;;;;;4978272;28;20458;-84
2023/06/05 09:15:35;;;;;;;2.97;1.90;;;28.80;38.70;;;;;;4975759;28;20456;-83
2023/06/05 09:18:15;;;;;;;2.40;2.20;;;28.70;38.80;;;;;;4973307;28;20486;-84
2023/06/05 09:20:45;;;;;;;2.07;1.70;;;29.20;38.90;;;;;;4977262;28;20992;-85
2023/06/05 09:23:28;;;;;;;2.33;1.97;;;29.50;38.20;;;;;;4992075;28;20469;-84
2023/06/05 09:26:04;;;;;;;2.63;1.63;;;29.70;36.90;;;;;;4975018;28;20472;-82
2023/06/05 09:28:52;;;;;;;2.20;1.80;;;29.50;35.60;;;;;;4975884;28;20506;-85
2023/06/05 09:31:28;;;;;;;2.90;2.00;;;29.50;35.40;;;;;;4979772;28;20492;-85
2023/06/05 09:34:04;;;;;;;1.90;1.80;;;29.60;35.70;;;;;;4984184;28;20538;-83
2023/06/05 09:36:57;;;;;;;2.07;1.90;;;30.00;35.20;;;;;;4954924;28;20457;-84
2023/06/05 09:39:49;;;;;;;2.73;1.97;;;30.80;34.20;;;;;;4955827;28;20429;-81
2023/06/05 09:42:40;;;;;;;5.13;2.17;;;31.40;32.90;;;;;;4958438;28;20540;-81
2023/06/05 09:45:44;;;;;;;2.53;1.90;;;31.60;32.10;;;;;;4950126;28;20468;-83
2023/06/05 09:48:16;;;;;;;1.70;1.60;;;31.60;32.20;;;;;;4961981;28;20457;-84
2023/06/05 09:50:55;;;;;;;2.13;1.83;;;31.70;31.40;;;;;;4969860;28;20532;-84
2023/06/05 09:53:23;;;;;;;2.20;2.00;;;32.40;30.10;;;;;;4954284;28;20462;-83
2023/06/05 09:56:00;;;;;;;2.60;1.80;;;33.10;30.50;;;;;;4987851;28;20527;-84
2023/06/05 09:58:34;;;;;;;2.50;1.70;;;33.50;30.00;;;;;;4986193;28;20463;-84
2023/06/05 10:01:10;;;;;;;2.20;1.97;;;33.30;29.30;;;;;;4979329;28;20488;-84
2023/06/05 10:03:42;;;;;;;1.73;1.63;;;33.20;29.10;;;;;;4976852;28;20583;-83
2023/06/05 10:06:13;;;;;;;1.50;1.40;;;34.00;28.00;;;;;;4975951;28;20453;-85
2023/06/05 10:08:52;;;;;;;1.77;1.57;;;34.10;27.20;;;;;;4991931;28;20490;-86
2023/06/05 10:11:26;;;;;;;2.17;1.80;;;32.80;27.50;;;;;;4977864;28;20483;-85
2023/06/05 10:13:55;;;;;;;1.70;1.60;;;31.80;28.30;;;;;;4974999;28;20452;-84
2023/06/05 10:16:29;;;;;;;1.90;1.80;;;32.10;28.60;;;;;;4975722;28;20455;-84
2023/06/05 10:19:04;;;;;;;2.33;2.13;;;33.30;27.70;;;;;;4971357;28;20479;-84
2023/06/05 10:21:48;;;;;;;2.63;2.00;;;33.70;27.40;;;;;;4969946;28;20491;-85
2023/06/05 10:24:38;;;;;;;2.00;1.70;;;33.50;27.10;;;;;;4970948;28;20460;-85
2023/06/05 10:27:58;;;;;;;2.43;1.77;;;33.30;27.40;;;;;;4972657;28;20476;-81
2023/06/05 10:30:47;;;;;;;1.90;1.80;;;33.50;27.30;;;;;;4959442;28;20512;-84
2023/06/05 10:34:00;;;;;;;2.17;1.70;;;34.00;26.20;;;;;;4964152;28;20596;-86
2023/06/05 10:36:47;;;;;;;1.93;1.73;;;33.10;26.60;;;;;;4980803;28;20464;-85
2023/06/05 10:39:28;;;;;;;1.50;1.40;;;33.40;26.60;;;;;;4982451;28;20460;-85
2023/06/05 10:42:00;;;;;;;1.60;1.50;;;33.70;26.10;;;;;;4997966;28;20448;-83
2023/06/05 10:44:44;;;;;;;1.97;1.67;;;33.30;26.20;;;;;;4992661;28;20446;-85
2023/06/05 10:47:40;;;;;;;1.60;1.50;;;32.40;25.80;;;;;;4983653;28;20472;-85
2023/06/05 10:50:19;;;;;;;3.03;2.83;;;32.50;26.20;;;;;;4989755;28;20530;-84
2023/06/05 10:52:48;;;;;;;2.20;2.00;;;32.00;26.80;;;;;;4969721;28;20479;-84
2023/06/05 10:55:24;;;;;;;2.10;2.00;;;33.10;26.20;;;;;;4969419;28;20499;-83
2023/06/05 10:58:15;;;;;;;2.00;1.90;;;32.70;26.20;;;;;;4991058;22;20518;-85
2023/06/05 11:01:20;;;;;;;1.77;1.67;;;32.90;26.70;;;;;;4982180;28;20708;-84
2023/06/05 11:03:59;;;;;;;1.70;1.60;;;33.00;26.70;;;;;;4984103;28;20455;-83
2023/06/05 11:06:30;;;;;;;3.43;1.57;;;33.60;25.30;;;;;;4984476;28;20958;-85
2023/06/05 11:09:29;;;;;;;1.70;1.60;;;32.80;26.20;;;;;;4989027;28;20908;-85
2023/06/05 11:12:03;;;;;;;1.93;1.80;;;32.80;27.40;;;;;;4963251;28;20504;-83
2023/06/05 11:14:57;;;;;;;1.60;1.50;;;32.80;26.50;;;;;;4975419;28;20885;-85
2023/06/05 11:17:35;;;;;;;1.70;1.60;;;32.50;26.10;;;;;;4975248;28;20456;-83
2023/06/05 11:20:27;;;;;;;1.83;1.60;;;32.30;25.90;;;;;;4988628;28;20487;-85
2023/06/05 11:23:01;;;;;;;2.13;1.77;;;32.80;25.80;;;;;;4974758;28;20471;-84
2023/06/05 11:25:32;;;;;;;2.00;1.80;;;32.10;25.60;;;;;;4969887;28;20488;-84
2023/06/05 11:28:08;;;;;;;1.90;1.80;;;32.10;25.90;;;;;;4987123;28;20475;-83
2023/06/05 11:30:51;;;;;;;2.60;1.60;;;31.90;26.00;;;;;;4972365;28;20487;-82
2023/06/05 11:33:23;;;;;;;1.77;1.67;;;32.20;26.20;;;;;;4975590;28;20849;-85
2023/06/05 11:36:01;;;;;;;2.83;1.93;;;32.80;25.80;;;;;;4976402;28;20457;-85
2023/06/05 11:38:36;;;;;;;2.40;1.70;;;32.20;25.90;;;;;;4988386;28;20513;-84
2023/06/05 11:41:12;;;;;;;2.10;1.90;;;31.90;26.30;;;;;;4973148;28;20477;-84
2023/06/05 11:43:48;;;;;;;1.93;1.80;;;31.80;26.30;;;;;;4972134;28;20460;-84
2023/06/05 11:46:24;;;;;;;1.90;1.80;;;33.10;26.00;;;;;;4988484;28;20497;-83
2023/06/05 11:49:01;;;;;;;1.60;1.50;;;33.30;25.60;;;;;;4975897;28;20483;-86
2023/06/05 11:51:40;;;;;;;1.80;1.70;;;32.70;26.10;;;;;;4977417;28;20480;-84
2023/06/05 11:54:14;;;;;;;1.40;1.30;;;33.00;25.40;;;;;;4972513;28;20487;-85
2023/06/05 11:56:50;;;;;;;2.87;1.90;;;32.70;25.40;;;;;;4983253;28;20503;-82
2023/06/05 11:59:24;;;;;;;1.60;1.50;;;32.80;25.80;;;;;;4972133;28;20510;-87
2023/06/05 12:02:06;;;;;;;1.67;1.57;;;32.60;25.40;;;;;;4970681;28;22606;-85
2023/06/05 12:04:55;;;;;;;2.30;1.67;;;32.70;25.30;;;;;;4971948;28;20452;-84
2023/06/05 12:07:36;;;;;;;2.70;2.33;;;33.20;25.30;;;;;;4986213;23;20504;-85
2023/06/05 12:10:08;;;;;;;1.60;1.50;;;33.20;25.30;;;;;;5006932;28;20513;-83
2023/06/05 12:12:55;;;;;;;2.27;1.97;;;32.60;25.40;;;;;;5006178;28;21199;-84
2023/06/05 12:15:26;;;;;;;1.67;1.50;;;33.80;24.80;;;;;;5003879;28;20459;-84
2023/06/05 12:17:56;;;;;;;1.97;1.70;;;33.50;24.80;;;;;;5009005;28;20497;-85
2023/06/05 12:20:27;;;;;;;2.20;2.00;;;32.80;25.60;;;;;;5010391;28;20481;-84
2023/06/05 12:22:59;;;;;;;2.10;1.87;;;32.60;26.30;;;;;;5010232;28;20465;-83
2023/06/05 12:25:26;;;;;;;1.67;1.57;;;32.40;26.50;;;;;;5012253;28;20524;-85
2023/06/05 12:27:59;;;;;;;2.03;1.80;;;32.60;26.30;;;;;;5012606;28;21012;-84
2023/06/05 12:30:41;;;;;;;1.90;1.70;;;32.60;26.30;;;;;;5008315;28;20479;-85
2023/06/05 12:33:11;;;;;;;2.10;1.70;;;32.20;26.10;;;;;;5009871;28;20557;-84
2023/06/05 12:35:40;;;;;;;2.33;2.17;;;32.10;26.00;;;;;;5012893;28;21005;-83
2023/06/05 12:38:08;;;;;;;2.10;1.80;;;32.00;25.90;;;;;;5010712;28;20508;-82
2023/06/05 12:40:38;;;;;;;1.57;1.47;;;31.80;26.10;;;;;;5010385;28;20522;-84
2023/06/05 12:43:19;;;;;;;1.67;1.57;;;32.10;26.00;;;;;;5008194;28;20599;-85
2023/06/05 12:45:51;;;;;;;2.20;2.00;;;31.80;25.90;;;;;;5011674;28;20999;-84
2023/06/05 12:48:28;;;;;;;2.10;1.30;;;32.70;25.90;;;;;;5012918;28;21004;-82
2023/06/05 12:50:56;;;;;;;2.00;1.90;;;32.10;25.70;;;;;;5012659;28;20486;-83
2023/06/05 12:53:31;;;;;;;1.60;1.40;;;31.70;26.10;;;;;;5014511;28;20988;-85
2023/06/05 12:56:04;;;;;;;1.80;1.70;;;31.60;26.30;;;;;;5015057;28;20457;-84
2023/06/05 12:58:33;;;;;;;3.53;2.03;;;31.40;26.40;;;;;;5019857;28;20513;-84
2023/06/05 13:01:06;;;;;;;1.53;1.43;;;31.50;26.30;;;;;;5018017;28;20473;-84
2023/06/05 13:03:45;;;;;;;2.13;1.73;;;31.70;26.40;;;;;;5016709;28;20511;-81
2023/06/05 13:06:33;;;;;;;1.77;1.67;;;31.60;26.10;;;;;;5013515;28;20442;-84
2023/06/05 13:09:07;;;;;;;3.00;1.97;;;31.60;26.70;;;;;;5027049;28;20458;-82
2023/06/05 13:11:41;;;;;;;2.30;2.10;;;32.30;26.40;;;;;;5028815;28;20601;-84
2023/06/05 13:14:10;;;;;;;3.60;2.10;;;32.30;25.90;;;;;;5030056;28;20445;-82
2023/06/05 13:16:40;;;;;;;2.37;2.10;;;31.60;26.00;;;;;;5029839;28;20469;-83
2023/06/05 13:19:09;;;;;;;2.70;2.50;;;31.00;26.60;;;;;;5003893;28;21685;-82
2023/06/05 13:21:38;;;;;;;2.27;2.07;;;30.60;27.10;;;;;;5012572;28;20478;-85
2023/06/05 13:24:05;;;;;;;2.03;1.93;;;30.20;27.70;;;;;;5010906;28;20451;-83
2023/06/05 13:26:38;;;;;;;2.20;2.03;;;30.20;28.10;;;;;;5025591;28;20442;-83
2023/06/05 13:29:19;;;;;;;1.67;1.57;;;30.10;28.80;;;;;;5026497;28;20466;-82
2023/06/05 13:31:49;;;;;;;1.80;1.70;;;30.50;28.30;;;;;;5025655;28;20549;-83